Time;durP1;ratioP1;P1;durP2;ratioP2;P2;SDS_P1;SDS_P2;PMS_P1;PMS_P2;Temp;Humidity;BMP_temperature;BMP_pressure;BME280_temperature;BME280_humidity;BME280_pressure;Samples;Min_cycle;Max_cycle;Signal;HPM_P1;HPM_P2
2023/04/25 00:00:31;;;;;;;;;;;;;;;5.75;100.00;100290.97;5059901;28;19925;-79
2023/04/25 00:02:59;;;;;;;;;;;;;;;5.67;100.00;100285.63;5059622;28;19945;-79
2023/04/25 00:05:27;;;;;;;;;;;;;;;5.65;100.00;100282.34;5059299;28;19944;-79
2023/04/25 00:07:53;;;;;;;;;;;;;;;5.61;100.00;100289.56;5057479;28;20003;-78
2023/04/25 00:10:20;;;;;;;;;;;;;;;5.62;100.00;100288.63;5060709;28;19990;-78
2023/04/25 00:12:47;;;;;;;;;;;;;;;5.60;100.00;100279.31;5060077;28;19929;-77
2023/04/25 00:15:16;;;;;;;;;;;;;;;5.51;100.00;100285.31;5059983;28;19947;-78
2023/04/25 00:17:42;;;;;;;;;;;;;;;5.48;100.00;100286.38;5058801;28;20357;-78
2023/04/25 00:20:10;;;;;;;;;;;;;;;5.45;100.00;100294.44;5050219;28;20001;-78
2023/04/25 00:22:38;;;;;;;;;;;;;;;5.41;100.00;100285.28;5057983;28;19980;-77
2023/04/25 00:25:05;;;;;;;;;;;;;;;5.30;100.00;100282.75;5057224;28;20445;-78
2023/04/25 00:27:31;;;;;;;;;;;;;;;5.24;100.00;100291.06;5059045;28;19925;-77
2023/04/25 00:29:58;;;;;;;;;;;;;;;5.23;100.00;100292.00;5058693;28;19982;-78
2023/04/25 00:32:24;;;;;;;;;;;;;;;5.29;100.00;100291.50;5056447;28;19972;-78
2023/04/25 00:34:51;;;;;;;;;;;;;;;5.24;100.00;100291.06;5057935;28;19925;-78
2023/04/25 00:37:18;;;;;;;;;;;;;;;5.18;100.00;100294.19;5058682;28;19960;-78
2023/04/25 00:39:45;;;;;;;;;;;;;;;5.14;100.00;100298.00;5051771;28;19932;-77
2023/04/25 00:42:12;;;;;;;;;;;;;;;5.15;100.00;100292.69;5056545;28;20011;-77
2023/04/25 00:44:39;;;;;;;;;;;;;;;5.09;100.00;100294.97;5049436;28;20004;-78
2023/04/25 00:47:05;;;;;;;;;;;;;;;5.13;100.00;100296.34;5053836;28;19983;-77
2023/04/25 00:49:32;;;;;;;;;;;;;;;4.99;100.00;100295.75;5055884;28;20008;-77
2023/04/25 00:51:58;;;;;;;;;;;;;;;5.03;100.00;100292.88;5055482;28;20379;-77
2023/04/25 00:54:25;;;;;;;;;;;;;;;4.94;100.00;100286.69;5054835;28;19978;-77
2023/04/25 00:56:53;;;;;;;;;;;;;;;4.87;100.00;100288.16;5054313;28;20007;-77
2023/04/25 00:59:20;;;;;;;;;;;;;;;4.82;100.00;100285.94;5055579;28;19932;-77
2023/04/25 01:01:47;;;;;;;;;;;;;;;4.86;100.00;100284.75;5063452;28;19964;-77
2023/04/25 01:04:13;;;;;;;;;;;;;;;4.81;100.00;100292.06;5071579;28;19967;-77
2023/04/25 01:06:40;;;;;;;;;;;;;;;4.79;100.00;100293.97;5068071;28;19980;-78
2023/04/25 01:09:07;;;;;;;;;;;;;;;4.83;100.00;100299.72;5059050;28;19971;-77
2023/04/25 01:11:34;;;;;;;;;;;;;;;4.79;100.00;100304.34;5057492;28;20016;-78
2023/04/25 01:14:02;;;;;;;;;;;;;;;4.78;100.00;100305.28;5055437;28;19931;-76
2023/04/25 01:16:29;;;;;;;;;;;;;;;4.79;100.00;100301.75;5054893;28;19924;-78
2023/04/25 01:18:55;;;;;;;;;;;;;;;4.86;100.00;100302.06;5055458;28;19983;-78
2023/04/25 01:21:26;;;;;;;;;;;;;;;4.85;100.00;100306.44;5054772;28;20024;-77
2023/04/25 01:23:52;;;;;;;;;;;;;;;4.77;100.00;100306.22;5054826;28;19931;-78
2023/04/25 01:26:21;;;;;;;;;;;;;;;4.74;100.00;100301.31;5052816;28;20016;-77
2023/04/25 01:28:48;;;;;;;;;;;;;;;4.71;100.00;100303.34;5053820;28;19932;-78
2023/04/25 01:31:15;;;;;;;;;;;;;;;4.63;100.00;100306.56;5054032;28;20404;-78
2023/04/25 01:33:41;;;;;;;;;;;;;;;4.60;100.00;100304.22;5053840;28;19947;-78
2023/04/25 01:36:08;;;;;;;;;;;;;;;4.60;100.00;100309.41;5054475;28;19964;-78
2023/04/25 01:38:36;;;;;;;;;;;;;;;4.57;100.00;100312.25;5055219;28;20009;-78
2023/04/25 01:41:02;;;;;;;;;;;;;;;4.62;100.00;100317.88;5054195;28;19925;-78
2023/04/25 01:43:29;;;;;;;;;;;;;;;4.55;100.00;100311.56;5059632;28;19932;-77
2023/04/25 01:45:55;;;;;;;;;;;;;;;4.52;100.00;100312.63;5058807;28;19996;-78
2023/04/25 01:48:22;;;;;;;;;;;;;;;4.49;100.00;100314.63;5059288;28;20024;-77
2023/04/25 01:50:48;;;;;;;;;;;;;;;4.47;100.00;100313.94;5054749;28;19970;-78
2023/04/25 01:53:15;;;;;;;;;;;;;;;4.49;100.00;100325.00;5052971;28;19925;-78
2023/04/25 01:55:43;;;;;;;;;;;;;;;4.51;100.00;100326.53;5052217;28;19924;-76
2023/04/25 01:58:12;;;;;;;;;;;;;;;4.49;100.00;100323.22;5053259;28;19925;-77
2023/04/25 02:00:40;;;;;;;;;;;;;;;4.55;100.00;100332.28;5052958;28;19924;-78
2023/04/25 02:03:07;;;;;;;;;;;;;;;4.49;100.00;100332.78;5052869;28;19929;-77
2023/04/25 02:05:35;;;;;;;;;;;;;;;4.45;100.00;100326.19;5052248;28;19975;-76
2023/04/25 02:08:01;;;;;;;;;;;;;;;4.46;100.00;100327.84;5053276;28;19931;-77
2023/04/25 02:10:28;;;;;;;;;;;;;;;4.53;100.00;100329.00;5053316;28;20015;-77
2023/04/25 02:12:56;;;;;;;;;;;;;;;4.57;100.00;100335.56;5053008;28;20375;-77
2023/04/25 02:15:22;;;;;;;;;;;;;;;4.65;100.00;100340.97;5053011;28;20272;-78
2023/04/25 02:17:49;;;;;;;;;;;;;;;4.68;100.00;100338.13;5053783;28;20010;-77
2023/04/25 02:20:16;;;;;;;;;;;;;;;4.73;100.00;100329.94;5054162;28;20003;-78
2023/04/25 02:22:42;;;;;;;;;;;;;;;4.87;100.00;100334.81;5052542;28;20307;-76
2023/04/25 02:25:10;;;;;;;;;;;;;;;4.95;100.00;100342.78;5051868;28;20019;-76
2023/04/25 02:27:36;;;;;;;;;;;;;;;4.96;100.00;100327.09;5051399;28;19925;-77
2023/04/25 02:30:05;;;;;;;;;;;;;;;5.04;100.00;100329.06;5052235;28;19976;-77
2023/04/25 02:32:34;;;;;;;;;;;;;;;5.03;100.00;100327.41;5052343;28;20271;-77
2023/04/25 02:35:03;;;;;;;;;;;;;;;5.07;100.00;100328.00;5052219;28;20309;-77
2023/04/25 02:37:30;;;;;;;;;;;;;;;5.11;100.00;100326.78;5052519;28;19955;-77
2023/04/25 02:39:56;;;;;;;;;;;;;;;5.15;100.00;100328.19;5051953;28;20358;-78
2023/04/25 02:42:22;;;;;;;;;;;;;;;5.19;100.00;100324.38;5052884;28;19931;-77
2023/04/25 02:44:49;;;;;;;;;;;;;;;5.15;100.00;100318.63;5055032;28;20314;-75
2023/04/25 02:47:16;;;;;;;;;;;;;;;5.13;100.00;100322.28;5055091;28;20007;-77
2023/04/25 02:49:43;;;;;;;;;;;;;;;5.16;100.00;100327.22;5055349;28;19933;-77
2023/04/25 02:52:09;;;;;;;;;;;;;;;5.14;100.00;100329.13;5046879;28;19971;-77
2023/04/25 02:54:36;;;;;;;;;;;;;;;5.09;100.00;100329.50;5056867;28;20446;-76
2023/04/25 02:57:03;;;;;;;;;;;;;;;5.13;100.00;100322.28;5057660;28;19976;-77
2023/04/25 02:59:29;;;;;;;;;;;;;;;5.10;100.00;100323.38;5047499;28;19925;-77
2023/04/25 03:01:56;;;;;;;;;;;;;;;5.09;100.00;100331.28;5055154;28;19964;-76
2023/04/25 03:04:24;;;;;;;;;;;;;;;5.07;100.00;100325.41;5054782;28;20337;-77
2023/04/25 03:06:51;;;;;;;;;;;;;;;5.06;100.00;100326.34;5053834;28;19932;-77
2023/04/25 03:09:17;;;;;;;;;;;;;;;5.08;100.00;100319.25;5055493;28;20023;-77
2023/04/25 03:11:44;;;;;;;;;;;;;;;5.10;100.00;100331.16;5057250;28;19984;-78
2023/04/25 03:14:11;;;;;;;;;;;;;;;5.15;100.00;100334.19;5058369;28;19929;-78
2023/04/25 03:16:37;;;;;;;;;;;;;;;5.18;100.00;100331.34;5054530;28;19929;-78
2023/04/25 03:19:04;;;;;;;;;;;;;;;5.22;100.00;100326.69;5054461;28;20020;-78
2023/04/25 03:21:32;;;;;;;;;;;;;;;5.22;100.00;100331.88;5053014;28;19979;-77
2023/04/25 03:23:58;;;;;;;;;;;;;;;5.22;100.00;100326.69;5053225;28;19931;-77
2023/04/25 03:26:25;;;;;;;;;;;;;;;5.19;100.00;100332.16;5056113;28;19992;-76
2023/04/25 03:28:51;;;;;;;;;;;;;;;5.25;100.00;100327.25;5056107;28;20028;-77
2023/04/25 03:31:17;;;;;;;;;;;;;;;5.28;100.00;100329.59;5053023;28;19972;-78
2023/04/25 03:33:44;;;;;;;;;;;;;;;5.33;100.00;100329.19;5052833;28;20355;-77
2023/04/25 03:36:10;;;;;;;;;;;;;;;5.31;100.00;100333.69;5051157;28;20011;-77
2023/04/25 03:38:38;;;;;;;;;;;;;;;5.35;100.00;100337.69;5051835;28;19931;-78
2023/04/25 03:41:04;;;;;;;;;;;;;;;5.33;100.00;100329.19;5050948;28;20032;-76
2023/04/25 03:43:31;;;;;;;;;;;;;;;5.35;100.00;100335.09;5051592;28;20351;-76
2023/04/25 03:45:57;;;;;;;;;;;;;;;5.43;100.00;100339.63;5053858;28;19935;-77
2023/04/25 03:48:24;;;;;;;;;;;;;;;5.41;100.00;100331.97;5054574;28;19978;-76
2023/04/25 03:50:50;;;;;;;;;;;;;;;5.42;100.00;100338.81;5054870;28;20016;-76
2023/04/25 03:53:17;;;;;;;;;;;;;;;5.46;100.00;100337.59;5054581;28;20003;-74
2023/04/25 03:55:45;;;;;;;;;;;;;;;5.43;100.00;100335.25;5054442;28;19931;-76
2023/04/25 03:58:11;;;;;;;;;;;;;;;5.42;100.00;100333.63;5055792;28;20012;-76
2023/04/25 04:00:37;;;;;;;;;;;;;;;5.44;100.00;100330.91;5054765;28;20403;-76
2023/04/25 04:03:04;;;;;;;;;;;;;;;5.44;100.00;100338.69;5058478;28;20019;-76
2023/04/25 04:05:30;;;;;;;;;;;;;;;5.46;100.00;100342.78;5057115;28;20336;-77
2023/04/25 04:07:57;;;;;;;;;;;;;;;5.45;100.00;100340.31;5071153;28;19924;-77
2023/04/25 04:10:23;;;;;;;;;;;;;;;5.48;100.00;100340.88;5073355;28;20349;-77
2023/04/25 04:12:51;;;;;;;;;;;;;;;5.48;100.00;100353.84;5066566;28;19924;-79
2023/04/25 04:15:18;;;;;;;;;;;;;;;5.41;100.00;100352.72;5104468;23;19927;-80
2023/04/25 04:17:44;;;;;;;;;;;;;;;5.44;100.00;100352.47;5122915;28;19991;-80
2023/04/25 04:20:11;;;;;;;;;;;;;;;5.45;100.00;100358.47;5117940;28;20010;-78
2023/04/25 04:22:37;;;;;;;;;;;;;;;5.44;100.00;100349.88;5113743;28;19924;-80
2023/04/25 04:25:05;;;;;;;;;;;;;;;5.45;100.00;100359.31;5116440;28;19991;-78
2023/04/25 04:27:32;;;;;;;;;;;;;;;5.44;100.00;100357.66;5102799;28;19928;-77
2023/04/25 04:30:00;;;;;;;;;;;;;;;5.43;100.00;100362.97;5102541;28;20026;-77
2023/04/25 04:32:27;;;;;;;;;;;;;;;5.41;100.00;100365.72;5111866;28;19924;-78
2023/04/25 04:34:54;;;;;;;;;;;;;;;5.43;100.00;100371.59;5123824;28;19987;-77
2023/04/25 04:37:21;;;;;;;;;;;;;;;5.45;100.00;100366.28;5127732;28;19924;-77
2023/04/25 04:39:48;;;;;;;;;;;;;;;5.47;100.00;100372.16;5121390;28;19937;-77
2023/04/25 04:42:14;;;;;;;;;;;;;;;5.55;100.00;100373.16;5122265;28;19935;-76
2023/04/25 04:44:41;;;;;;;;;;;;;;;5.60;100.00;100385.75;5120767;28;19924;-78
2023/04/25 04:47:10;;;;;;;;;;;;;;;5.59;100.00;100386.69;5124629;28;19952;-77
2023/04/25 04:49:36;;;;;;;;;;;;;;;5.59;100.00;100392.72;5126331;28;19912;-80
2023/04/25 04:52:03;;;;;;;;;;;;;;;5.63;100.00;100394.09;5128345;28;19919;-78
2023/04/25 04:54:29;;;;;;;;;;;;;;;5.65;100.00;100394.78;5111027;28;19977;-78
2023/04/25 04:56:56;;;;;;;;;;;;;;;5.72;100.00;100402.84;5108020;28;19924;-78
2023/04/25 04:59:22;;;;;;;;;;;;;;;5.81;100.00;100404.66;5105020;28;19967;-78
2023/04/25 05:01:49;;;;;;;;;;;;;;;5.81;100.00;100407.25;5105490;28;19927;-79
2023/04/25 05:04:16;;;;;;;;;;;;;;;5.90;100.00;100416.09;5098702;28;20012;-79
2023/04/25 05:06:44;;;;;;;;;;;;;;;5.94;100.00;100415.69;5102082;28;19927;-80
2023/04/25 05:09:10;;;;;;;;;;;;;;;5.95;100.00;100413.91;5105352;28;19931;-78
2023/04/25 05:11:36;;;;;;;;;;;;;;;6.08;100.00;100419.72;5104619;28;19954;-77
2023/04/25 05:14:03;;;;;;;;;;;;;;;6.12;100.00;100410.69;5106031;28;19983;-78
2023/04/25 05:16:30;;;;;;;;;;;;;;;6.20;100.00;100417.81;5103215;28;19954;-79
2023/04/25 05:18:56;;;;;;;;;;;;;;;6.39;100.00;100432.63;5106732;28;19924;-79
2023/04/25 05:21:24;;;;;;;;;;;;;;;6.51;100.00;100432.38;5103891;28;19966;-78
2023/04/25 05:23:50;;;;;;;;;;;;;;;6.69;100.00;100439.50;5104190;28;20011;-78
2023/04/25 05:26:16;;;;;;;;;;;;;;;6.91;99.72;100439.25;5104214;28;20022;-78
2023/04/25 05:28:43;;;;;;;;;;;;;;;7.25;98.55;100440.44;5110813;28;19971;-78
2023/04/25 05:31:10;;;;;;;;;;;;;;;7.79;96.87;100461.56;5105778;28;19923;-78
2023/04/25 05:33:37;;;;;;;;;;;;;;;8.31;94.78;100466.13;5107262;28;19924;-78
2023/04/25 05:36:03;;;;;;;;;;;;;;;8.88;92.05;100458.13;5107954;28;19970;-78
2023/04/25 05:38:31;;;;;;;;;;;;;;;9.05;89.47;100454.66;5102717;28;19959;-79
2023/04/25 05:40:58;;;;;;;;;;;;;;;9.27;87.64;100435.09;5106258;28;19967;-78
2023/04/25 05:43:24;;;;;;;;;;;;;;;9.42;86.26;100448.44;5104184;28;19967;-80
2023/04/25 05:45:51;;;;;;;;;;;;;;;9.54;85.28;100442.78;5106480;28;20394;-79
2023/04/25 05:48:17;;;;;;;;;;;;;;;9.28;85.03;100447.19;5103132;28;20054;-80
2023/04/25 05:50:44;;;;;;;;;;;;;;;9.14;84.92;100455.56;5106232;28;19924;-79
2023/04/25 05:53:10;;;;;;;;;;;;;;;8.98;83.83;100445.78;5106140;28;19934;-80
2023/04/25 05:55:38;;;;;;;;;;;;;;;9.07;83.97;100454.50;5105632;28;19924;-80
2023/04/25 05:58:06;;;;;;;;;;;;;;;9.40;82.89;100451.19;5106026;28;19974;-79
2023/04/25 06:00:32;;;;;;;;;;;;;;;9.61;82.17;100462.09;5103274;28;19928;-80
2023/04/25 06:02:58;;;;;;;;;;;;;;;10.10;80.97;100459.75;5105482;28;19966;-80
2023/04/25 06:05:25;;;;;;;;;;;;;;;10.79;78.81;100456.06;5104072;28;20007;-80
2023/04/25 06:07:51;;;;;;;;;;;;;;;10.68;77.16;100456.34;5096354;28;19925;-80
2023/04/25 06:10:18;;;;;;;;;;;;;;;10.76;76.67;100451.13;5103327;28;19959;-80
2023/04/25 06:12:46;;;;;;;;;;;;;;;10.78;76.68;100457.03;5109866;28;19932;-80
2023/04/25 06:15:12;;;;;;;;;;;;;;;10.05;77.39;100469.84;5091626;28;20356;-80
2023/04/25 06:17:38;;;;;;;;;;;;;;;9.76;78.45;100467.59;5102269;28;20015;-80
2023/04/25 06:20:05;;;;;;;;;;;;;;;9.55;80.13;100475.78;5104192;28;19956;-81
2023/04/25 06:22:32;;;;;;;;;;;;;;;9.03;80.17;100474.06;5103195;28;19928;-81
2023/04/25 06:24:59;;;;;;;;;;;;;;;9.45;80.69;100477.66;5104030;28;20340;-81
2023/04/25 06:27:26;;;;;;;;;;;;;;;9.35;79.91;100474.34;5092500;28;19924;-81
2023/04/25 06:29:54;;;;;;;;;;;;;;;9.57;80.12;100478.22;5098469;28;19955;-80
2023/04/25 06:32:20;;;;;;;;;;;;;;;9.69;80.02;100478.81;5101818;28;20386;-80
2023/04/25 06:34:46;;;;;;;;;;;;;;;9.15;80.05;100468.47;5102367;28;19996;-80
2023/04/25 06:37:13;;;;;;;;;;;;;;;9.60;79.19;100470.91;5099579;28;20027;-80
2023/04/25 06:39:39;;;;;;;;;;;;;;;9.72;78.92;100468.03;5101638;28;20019;-80
2023/04/25 06:42:06;;;;;;;;;;;;;;;9.26;78.20;100472.63;5099291;28;19991;-81
2023/04/25 06:44:32;;;;;;;;;;;;;;;9.19;78.46;100480.25;5095189;28;19978;-80
2023/04/25 06:47:00;;;;;;;;;;;;;;;9.45;79.08;100485.47;5102951;28;19963;-80
2023/04/25 06:49:26;;;;;;;;;;;;;;;9.45;78.67;100482.88;5108440;28;20306;-80
2023/04/25 06:51:53;;;;;;;;;;;;;;;9.59;78.56;100491.97;5091792;28;19951;-80
2023/04/25 06:54:19;;;;;;;;;;;;;;;9.34;78.55;100477.91;5103732;28;19971;-78
2023/04/25 06:56:45;;;;;;;;;;;;;;;9.31;79.02;100486.06;5106234;28;19963;-78
2023/04/25 06:59:12;;;;;;;;;;;;;;;9.10;78.44;100490.75;5099777;28;19931;-79
2023/04/25 07:01:38;;;;;;;;;;;;;;;8.84;79.91;100504.56;5103074;28;19959;-78
2023/04/25 07:04:06;;;;;;;;;;;;;;;8.96;80.22;100503.38;5108623;28;19928;-78
2023/04/25 07:06:34;;;;;;;;;;;;;;;9.28;80.10;100502.03;5115641;28;19978;-78
2023/04/25 07:09:03;;;;;;;;;;;;;;;9.37;79.07;100500.31;5116493;28;19931;-82
2023/04/25 07:11:29;;;;;;;;;;;;;;;9.46;78.30;100494.97;5108890;28;19947;-82
2023/04/25 07:13:56;;;;;;;;;;;;;;;9.42;77.59;100500.66;5109245;28;19924;-78
2023/04/25 07:16:22;;;;;;;;;;;;;;;9.87;77.09;100505.72;5100210;28;19951;-79
2023/04/25 07:18:49;;;;;;;;;;;;;;;10.02;76.37;100509.38;5098927;28;19924;-78
2023/04/25 07:21:24;;;;;;;;;;;;;;;10.25;76.58;100518.34;5096798;28;19924;-79
2023/04/25 07:23:50;;;;;;;;;;;;;;;9.85;75.33;100518.09;5094640;28;19931;-80
2023/04/25 07:26:17;;;;;;;;;;;;;;;9.83;75.70;100513.03;5099293;28;20011;-79
2023/04/25 07:28:43;;;;;;;;;;;;;;;9.52;75.89;100517.03;5097439;28;19985;-80
2023/04/25 07:31:10;;;;;;;;;;;;;;;9.43;75.71;100512.75;5101836;28;19951;-78
2023/04/25 07:33:36;;;;;;;;;;;;;;;9.59;76.50;100515.47;5096535;28;19924;-78
2023/04/25 07:36:03;;;;;;;;;;;;;;;9.75;76.46;100527.84;5116799;28;20511;-78
2023/04/25 07:38:31;;;;;;;;;;;;;;;9.58;75.27;100506.81;5111680;28;19982;-79
2023/04/25 07:40:57;;;;;;;;;;;;;;;9.72;75.22;100520.31;5103545;28;19979;-80
2023/04/25 07:43:24;;;;;;;;;;;;;;;9.64;75.09;100506.22;5102326;28;19967;-80
2023/04/25 07:45:50;;;;;;;;;;;;;;;9.60;74.93;100504.88;5101245;28;19941;-80
2023/04/25 07:48:17;;;;;;;;;;;;;;;9.95;74.58;100503.94;5102950;28;19924;-79
2023/04/25 07:50:44;;;;;;;;;;;;;;;10.10;73.94;100514.63;5101832;28;19932;-79
2023/04/25 07:53:10;;;;;;;;;;;;;;;10.03;73.36;100516.22;5093363;28;20450;-80
2023/04/25 07:55:39;;;;;;;;;;;;;;;9.79;73.49;100519.53;5093158;28;19951;-79
2023/04/25 07:58:06;;;;;;;;;;;;;;;10.03;73.58;100531.09;5095957;28;19928;-80
2023/04/25 08:00:32;;;;;;;;;;;;;;;10.16;73.11;100536.75;5101703;28;19928;-79
2023/04/25 08:02:59;;;;;;;;;;;;;;;10.28;73.02;100533.72;5102978;28;20345;-80
2023/04/25 08:05:25;;;;;;;;;;;;;;;10.49;73.10;100540.34;5106989;28;19936;-79
2023/04/25 08:07:52;;;;;;;;;;;;;;;10.34;71.96;100529.69;5102547;28;19994;-79
2023/04/25 08:10:18;;;;;;;;;;;;;;;10.24;71.19;100535.03;5102628;28;19924;-78
2023/04/25 08:12:46;;;;;;;;;;;;;;;10.33;70.75;100530.66;5103884;28;19959;-79
2023/04/25 08:15:13;;;;;;;;;;;;;;;10.52;70.64;100542.66;5110894;28;20526;-79
2023/04/25 08:17:40;;;;;;;;;;;;;;;10.78;71.04;100553.88;5113755;28;19913;-79
2023/04/25 08:20:07;;;;;;;;;;;;;;;11.01;70.64;100551.47;5112166;28;19943;-78
2023/04/25 08:22:33;;;;;;;;;;;;;;;11.11;69.49;100546.09;5111745;28;19963;-78
2023/04/25 08:25:00;;;;;;;;;;;;;;;10.82;69.88;100552.56;5112567;28;19974;-80
2023/04/25 08:27:26;;;;;;;;;;;;;;;11.02;70.08;100562.75;5110749;28;19995;-79
2023/04/25 08:29:54;;;;;;;;;;;;;;;10.81;69.08;100547.50;5120997;28;19928;-78
2023/04/25 08:32:21;;;;;;;;;;;;;;;11.26;68.61;100552.34;5118370;28;19983;-78
2023/04/25 08:34:48;;;;;;;;;;;;;;;11.84;67.50;100561.84;5109326;28;19924;-81
2023/04/25 08:37:14;;;;;;;;;;;;;;;11.75;66.63;100562.81;5115203;28;19924;-79
2023/04/25 08:39:41;;;;;;;;;;;;;;;10.96;64.71;100549.31;5108534;28;19924;-80
2023/04/25 08:42:08;;;;;;;;;;;;;;;10.91;65.52;100569.09;5118897;28;19938;-80
2023/04/25 08:44:35;;;;;;;;;;;;;;;10.71;65.69;100567.75;5111138;28;19946;-80
2023/04/25 08:47:04;;;;;;;;;;;;;;;10.96;66.19;100572.88;5106769;28;20003;-79
2023/04/25 08:49:31;;;;;;;;;;;;;;;10.93;66.14;100578.44;5110660;28;19925;-80
2023/04/25 08:51:59;;;;;;;;;;;;;;;11.08;66.50;100585.69;5098098;28;20381;-79
2023/04/25 08:54:28;;;;;;;;;;;;;;;11.27;66.72;100586.22;5094261;28;19971;-79
2023/04/25 08:56:55;;;;;;;;;;;;;;;10.82;67.70;100593.63;5092351;28;19929;-79
2023/04/25 08:59:22;;;;;;;;;;;;;;;11.02;67.69;100596.78;5102045;28;19950;-80
2023/04/25 09:01:49;;;;;;;;;;;;;;;10.87;68.45;100609.69;5115693;28;19970;-80
2023/04/25 09:04:18;;;;;;;;;;;;;;;10.60;66.61;100595.84;5109295;28;20390;-81
2023/04/25 09:06:45;;;;;;;;;;;;;;;10.49;67.00;100608.38;5099724;28;19971;-79
2023/04/25 09:09:11;;;;;;;;;;;;;;;10.64;67.22;100605.00;5098291;28;19946;-80
2023/04/25 09:11:38;;;;;;;;;;;;;;;10.61;66.68;100604.50;5093809;28;19924;-79
2023/04/25 09:14:11;;;;;;;;;;;;;;;10.63;67.01;100610.41;5101388;28;19932;-79
2023/04/25 09:16:57;;;;;;;;;;;;;;;10.62;66.08;100604.34;5101353;28;19930;-79
2023/04/25 09:19:26;;;;;;;;;;;;;;;11.03;64.37;100599.25;5098375;28;20019;-79
2023/04/25 09:21:54;;;;;;;;;;;;;;;11.20;63.53;100594.88;5105716;28;20376;-79
2023/04/25 09:24:30;;;;;;;;;;;;;;;11.14;63.44;100603.38;5098713;28;20373;-79
2023/04/25 09:26:57;;;;;;;;;;;;;;;10.71;63.19;100613.06;5102406;28;19930;-80
2023/04/25 09:29:29;;;;;;;;;;;;;;;10.68;63.48;100616.00;5098661;28;19933;-79
2023/04/25 09:32:11;;;;;;;;;;;;;;;10.48;63.55;100599.69;5103537;28;19924;-79
2023/04/25 09:34:42;;;;;;;;;;;;;;;10.63;65.03;100620.88;5093577;28;19996;-79
2023/04/25 09:37:09;;;;;;;;;;;;;;;10.65;64.84;100616.31;5089459;28;19928;-78
2023/04/25 09:39:37;;;;;;;;;;;;;;;10.93;64.66;100620.31;5095593;28;19932;-79
2023/04/25 09:42:04;;;;;;;;;;;;;;;10.86;64.50;100613.28;5093339;28;19928;-79
2023/04/25 09:44:30;;;;;;;;;;;;;;;10.52;64.83;100636.84;5087760;28;20278;-76
2023/04/25 09:46:57;;;;;;;;;;;;;;;10.42;65.66;100636.13;5085148;28;19924;-78
2023/04/25 09:49:23;;;;;;;;;;;;;;;10.08;65.91;100636.84;5096110;28;19953;-79
2023/04/25 09:51:57;;;;;;;;;;;;;;;9.96;66.92;100643.28;5099399;28;19923;-78
2023/04/25 09:54:24;;;;;;;;;;;;;;;9.81;67.57;100648.25;5099137;28;20000;-78
2023/04/25 09:56:52;;;;;;;;;;;;;;;9.80;67.80;100657.06;5106623;28;19947;-78
2023/04/25 09:59:20;;;;;;;;;;;;;;;9.74;67.72;100656.84;5102188;28;19924;-78
2023/04/25 10:01:47;;;;;;;;;;;;;;;9.71;67.72;100662.38;5118403;28;19941;-78
2023/04/25 10:04:13;;;;;;;;;;;;;;;9.83;67.33;100663.78;5081134;28;19964;-79
2023/04/25 10:06:42;;;;;;;;;;;;;;;9.88;67.84;100672.00;5097560;28;20024;-79
2023/04/25 10:09:11;;;;;;;;;;;;;;;9.86;68.95;100671.34;5101003;28;19924;-80
2023/04/25 10:11:39;;;;;;;;;;;;;;;9.89;68.85;100681.50;5110641;28;19935;-79
2023/04/25 10:14:05;;;;;;;;;;;;;;;10.12;68.31;100672.19;5119371;28;20015;-79
2023/04/25 10:16:32;;;;;;;;;;;;;;;10.34;67.39;100676.16;5113666;28;19958;-78
2023/04/25 10:18:59;;;;;;;;;;;;;;;10.24;66.62;100671.00;5121242;28;20362;-80
2023/04/25 10:21:28;;;;;;;;;;;;;;;11.16;65.83;100661.66;5116190;28;19975;-82
2023/04/25 10:23:55;;;;;;;;;;;;;;;11.44;63.82;100652.53;5121264;28;19930;-80
2023/04/25 10:26:23;;;;;;;;;;;;;;;12.06;61.61;100649.50;5106727;28;20019;-79
2023/04/25 10:28:56;;;;;;;;;;;;;;;12.02;60.78;100653.44;5113537;28;20023;-79
2023/04/25 10:31:22;;;;;;;;;;;;;;;11.75;61.04;100665.88;5116672;28;20239;-80
2023/04/25 10:33:49;;;;;;;;;;;;;;;11.34;60.90;100653.69;5102658;28;19931;-80
2023/04/25 10:36:18;;;;;;;;;;;;;;;10.81;62.77;100681.81;5102569;28;19931;-80
2023/04/25 10:38:45;;;;;;;;;;;;;;;9.95;64.93;100691.31;5101750;28;19987;-80
2023/04/25 10:41:11;;;;;;;;;;;;;;;9.73;66.83;100694.41;5113516;28;19924;-80
2023/04/25 10:43:40;;;;;;;;;;;;;;;9.81;67.40;100694.47;5115805;28;20019;-80
2023/04/25 10:46:19;;;;;;;;;;;;;;;9.77;65.83;100682.69;5114657;28;19924;-80
2023/04/25 10:48:49;;;;;;;;;;;;;;;9.92;65.51;100678.56;5116108;28;19931;-83
2023/04/25 10:51:20;;;;;;;;;;;;;;;9.75;64.60;100677.59;5108701;28;19923;-81
2023/04/25 10:53:47;;;;;;;;;;;;;;;10.05;64.39;100678.16;5116165;28;19955;-80
2023/04/25 10:56:18;;;;;;;;;;;;;;;10.25;64.17;100677.88;5112819;28;19968;-78
2023/04/25 10:58:46;;;;;;;;;;;;;;;10.57;64.04;100677.25;5112854;28;20061;-81
2023/04/25 11:01:13;;;;;;;;;;;;;;;10.93;63.34;100662.22;5127632;28;19924;-81
2023/04/25 11:03:43;;;;;;;;;;;;;;;11.13;62.01;100662.78;5117398;28;21918;-80
2023/04/25 11:06:16;;;;;;;;;;;;;;;11.16;61.85;100670.34;5105569;28;19924;-79
2023/04/25 11:08:48;;;;;;;;;;;;;;;11.56;61.72;100666.97;5114721;28;19958;-81
2023/04/25 11:11:15;;;;;;;;;;;;;;;12.06;61.28;100673.09;5113722;28;19927;-80
2023/04/25 11:13:41;;;;;;;;;;;;;;;12.18;60.67;100661.31;5106320;28;19925;-80
2023/04/25 11:16:09;;;;;;;;;;;;;;;12.25;59.95;100660.47;5101427;28;20385;-80
2023/04/25 11:18:36;;;;;;;;;;;;;;;12.04;60.71;100668.03;5107800;28;19969;-80
2023/04/25 11:21:03;;;;;;;;;;;;;;;12.30;60.52;100671.28;5112948;28;19924;-79
2023/04/25 11:23:30;;;;;;;;;;;;;;;12.33;60.22;100669.31;5113478;28;19974;-80
2023/04/25 11:25:57;;;;;;;;;;;;;;;12.53;59.35;100668.78;5102526;28;20022;-79
2023/04/25 11:28:24;;;;;;;;;;;;;;;12.23;58.68;100654.59;5103226;28;20440;-79
2023/04/25 11:30:51;;;;;;;;;;;;;;;11.72;58.19;100658.34;5095605;28;19927;-77
2023/04/25 11:33:30;;;;;;;;;;;;;;;11.70;57.89;100662.09;5098709;28;19977;-77
2023/04/25 11:35:58;;;;;;;;;;;;;;;11.66;58.02;100661.59;5096958;28;19935;-79
2023/04/25 11:38:25;;;;;;;;;;;;;;;11.47;57.19;100667.13;5117979;28;20012;-78
2023/04/25 11:40:52;;;;;;;;;;;;;;;11.10;56.93;100651.81;5104598;28;20045;-77
2023/04/25 11:43:19;;;;;;;;;;;;;;;10.83;57.64;100660.72;5109633;28;19924;-79
2023/04/25 11:45:47;;;;;;;;;;;;;;;10.75;58.20;100665.91;5113526;28;19950;-77
2023/04/25 11:48:13;;;;;;;;;;;;;;;10.79;58.76;100659.38;5097439;28;19931;-79
2023/04/25 11:50:41;;;;;;;;;;;;;;;11.39;59.27;100675.78;5090778;28;19979;-78
2023/04/25 11:53:08;;;;;;;;;;;;;;;11.89;58.58;100657.38;5098965;28;19991;-78
2023/04/25 11:55:36;;;;;;;;;;;;;;;12.04;57.47;100657.53;5090840;28;19967;-81
2023/04/25 11:58:03;;;;;;;;;;;;;;;11.64;57.00;100656.50;5084239;28;19932;-79
2023/04/25 12:00:29;;;;;;;;;;;;;;;11.98;55.82;100644.25;5092373;28;19912;-78
2023/04/25 12:02:57;;;;;;;;;;;;;;;12.25;55.22;100659.66;5089834;28;19986;-78
2023/04/25 12:05:25;;;;;;;;;;;;;;;12.79;54.58;100658.03;5085051;28;19932;-78
2023/04/25 12:07:53;;;;;;;;;;;;;;;13.22;54.25;100658.56;5091508;28;19954;-77
2023/04/25 12:10:20;;;;;;;;;;;;;;;13.31;54.56;100657.50;5088734;28;19968;-77
2023/04/25 12:12:47;;;;;;;;;;;;;;;13.19;54.23;100651.84;5092473;28;19930;-77
2023/04/25 12:15:15;;;;;;;;;;;;;;;12.99;54.60;100673.38;5088490;28;19924;-78
2023/04/25 12:17:42;;;;;;;;;;;;;;;12.80;53.97;100669.34;5095860;28;19924;-78
2023/04/25 12:20:09;;;;;;;;;;;;;;;12.46;53.89;100669.63;5104788;28;19967;-78
2023/04/25 12:22:36;;;;;;;;;;;;;;;12.42;53.25;100668.31;5100390;28;20007;-78
2023/04/25 12:25:04;;;;;;;;;;;;;;;12.24;54.24;100674.59;5083508;28;20017;-74
2023/04/25 12:27:31;;;;;;;;;;;;;;;11.83;55.12;100670.31;5080954;28;20015;-75
2023/04/25 12:29:58;;;;;;;;;;;;;;;11.98;55.98;100687.03;5091168;28;20002;-76
2023/04/25 12:32:25;;;;;;;;;;;;;;;11.94;56.65;100693.59;5093114;28;19968;-75
2023/04/25 12:34:51;;;;;;;;;;;;;;;11.69;56.95;100692.72;5089672;28;19931;-76
2023/04/25 12:37:18;;;;;;;;;;;;;;;11.83;57.98;100705.22;5106673;28;20034;-75